Time;durP1;ratioP1;P1;durP2;ratioP2;P2;SDS_P1;SDS_P2;PMS_P1;PMS_P2;Temp;Humidity;BMP_temperature;BMP_pressure;BME280_temperature;BME280_humidity;BME280_pressure;Samples;Min_cycle;Max_cycle;Signal;HPM_P1;HPM_P2
2022/06/17 00:00:12;;;;;;;8.55;6.22;;;;;;;19.57;60.18;102374.38;5028403;28;20017;-54
2022/06/17 00:02:37;;;;;;;8.73;6.60;;;;;;;19.60;60.29;102371.88;4999831;28;21056;-56
2022/06/17 00:05:03;;;;;;;10.20;6.80;;;;;;;19.56;60.01;102370.91;5028313;28;20044;-55
2022/06/17 00:07:29;;;;;;;11.02;6.38;;;;;;;19.65;59.81;102367.56;5026189;28;20033;-54
2022/06/17 00:09:54;;;;;;;8.43;6.78;;;;;;;19.67;59.41;102365.88;5026838;28;20048;-55
2022/06/17 00:12:19;;;;;;;9.48;6.38;;;;;;;19.69;59.98;102373.72;5028142;28;20389;-56
2022/06/17 00:17:28;;;;;;;7.68;6.85;;;;;;;19.63;60.08;102371.88;5029830;28;20090;-50
2022/06/17 00:19:54;;;;;;;10.82;7.03;;;;;;;19.53;60.23;102367.34;5025555;28;21833;-51
2022/06/17 00:22:20;;;;;;;10.73;7.40;;;;;;;19.62;59.58;102375.34;4982784;28;20064;-55
2022/06/17 00:24:46;;;;;;;9.88;6.97;;;;;;;19.65;60.05;102378.00;5026557;28;20115;-52
2022/06/17 00:27:14;;;;;;;11.32;7.43;;;;;;;19.57;59.78;102379.59;5024123;28;20036;-55
2022/06/17 00:29:39;;;;;;;9.00;7.65;;;;;;;19.48;59.97;102375.13;4992667;28;20041;-52
2022/06/17 00:32:05;;;;;;;11.30;7.55;;;;;;;19.41;60.45;102377.59;5026527;28;20413;-56
2022/06/17 00:34:30;;;;;;;10.27;7.70;;;;;;;19.42;60.20;102372.44;5023792;28;20060;-55
2022/06/17 00:36:59;;;;;;;11.60;8.10;;;;;;;19.33;60.53;102359.22;5028089;28;20045;-48
2022/06/17 00:39:27;;;;;;;9.18;7.72;;;;;;;19.40;60.96;102375.84;5025824;28;20024;-56
2022/06/17 00:41:56;;;;;;;10.07;7.78;;;;;;;19.39;60.98;102380.19;5026251;28;20033;-54
2022/06/17 00:44:30;;;;;;;11.32;8.07;;;;;;;19.48;60.30;102384.69;5028506;28;20052;-57
2022/06/17 00:47:23;;;;;;;12.48;7.85;;;;;;;19.52;60.02;102376.03;5026114;28;20041;-53
2022/06/17 00:50:04;;;;;;;11.10;7.63;;;;;;;19.38;59.92;102388.00;5027123;28;20025;-52
2022/06/17 00:52:39;;;;;;;10.65;7.47;;;;;;;19.37;59.68;102374.06;5025459;28;20465;-55
2022/06/17 00:55:17;;;;;;;10.55;7.65;;;;;;;19.29;60.26;102368.75;5022305;28;20032;-57
2022/06/17 00:57:44;;;;;;;9.82;7.60;;;;;;;19.25;60.37;102371.28;5025128;28;20040;-53
2022/06/17 01:00:16;;;;;;;10.57;7.95;;;;;;;19.25;60.65;102384.31;5024598;28;20032;-54
2022/06/17 01:02:49;;;;;;;14.25;8.15;;;;;;;19.28;60.20;102390.44;5024528;28;21174;-54
2022/06/17 01:05:18;;;;;;;9.40;8.50;;;;;;;19.31;60.26;102388.75;5029689;28;20532;-53
2022/06/17 01:07:57;;;;;;;13.05;8.23;;;;;;;19.22;59.45;102387.72;5025377;28;20112;-55
2022/06/17 01:10:23;;;;;;;11.20;8.50;;;;;;;19.13;59.40;102381.50;5027031;28;20021;-57
2022/06/17 01:12:57;;;;;;;12.07;8.50;;;;;;;19.13;59.48;102382.38;5026736;28;20079;-52
2022/06/17 01:15:26;;;;;;;11.88;8.90;;;;;;;19.16;59.34;102381.53;5026551;28;20110;-54
2022/06/17 01:17:52;;;;;;;12.23;8.43;;;;;;;19.20;59.59;102384.22;5024497;28;20053;-55
2022/06/17 01:20:18;;;;;;;11.82;8.85;;;;;;;19.08;60.14;102383.16;5025436;28;20109;-55
2022/06/17 01:22:50;;;;;;;11.05;8.57;;;;;;;19.03;60.10;102376.13;5029735;28;21603;-54
2022/06/17 01:25:29;;;;;;;14.52;9.05;;;;;;;18.99;60.21;102379.53;5022298;28;20021;-55
2022/06/17 01:28:05;;;;;;;;;;;;;;;19.19;58.61;102377.25;5027305;28;20018;-55
2022/06/17 01:30:52;;;;;;;13.77;9.02;;;;;;;18.96;60.03;102374.25;5025730;28;19920;-53
2022/06/17 01:33:23;;;;;;;11.50;8.82;;;;;;;18.97;60.45;102369.91;5028788;28;20417;-54
2022/06/17 01:36:10;;;;;;;10.35;8.98;;;;;;;19.05;59.71;102367.44;5023274;28;20032;-49
2022/06/17 01:38:38;;;;;;;11.82;9.20;;;;;;;18.96;60.33;102373.38;5022155;28;20035;-57
2022/06/17 01:41:04;;;;;;;14.48;9.45;;;;;;;18.89;60.58;102371.53;5022819;28;20027;-51
2022/06/17 01:43:44;;;;;;;12.75;9.38;;;;;;;18.99;60.34;102370.84;5029226;28;20061;-57
2022/06/17 01:46:15;;;;;;;12.45;9.05;;;;;;;19.03;59.98;102377.84;5028773;28;20481;-52
2022/06/17 01:48:46;;;;;;;14.70;9.88;;;;;;;18.88;59.89;102375.00;5027456;28;20029;-57
2022/06/17 01:51:14;;;;;;;13.45;9.52;;;;;;;18.83;60.03;102381.84;5026389;28;20116;-56
2022/06/17 01:53:46;;;;;;;11.55;9.13;;;;;;;18.84;59.93;102381.88;5026021;28;20033;-50
2022/06/17 01:56:15;;;;;;;11.23;9.10;;;;;;;18.84;60.28;102384.47;5025684;28;20083;-57
2022/06/17 01:58:54;;;;;;;14.18;9.65;;;;;;;18.84;59.86;102378.38;5022688;28;20486;-56
2022/06/17 02:01:22;;;;;;;12.23;9.57;;;;;;;18.69;61.00;102377.25;5024801;28;20056;-53
2022/06/17 02:03:54;;;;;;;14.63;9.90;;;;;;;18.68;60.78;102372.00;5028870;28;20037;-53
2022/06/17 02:06:38;;;;;;;12.88;10.02;;;;;;;18.66;60.51;102374.56;5025808;28;20036;-53
2022/06/17 02:09:04;;;;;;;12.20;9.90;;;;;;;18.44;61.73;102377.59;5027845;28;20032;-51
2022/06/17 02:11:29;;;;;;;14.35;9.82;;;;;;;18.40;61.70;102376.66;5023989;28;20041;-57
2022/06/17 02:13:55;;;;;;;13.18;10.32;;;;;;;18.39;61.82;102379.25;5026665;28;20965;-53
2022/06/17 02:16:21;;;;;;;14.30;11.15;;;;;;;18.30;62.55;102374.72;5024336;28;21137;-56
2022/06/17 02:18:47;;;;;;;11.77;9.85;;;;;;;18.34;62.34;102376.53;5026302;28;20090;-55
2022/06/17 02:21:18;;;;;;;13.00;10.52;;;;;;;18.36;62.24;102373.97;5026401;28;20116;-54
2022/06/17 02:23:44;;;;;;;15.77;11.30;;;;;;;18.32;62.36;102370.44;5028080;28;20034;-55
2022/06/17 02:26:12;;;;;;;13.90;10.10;;;;;;;18.39;62.17;102371.44;5021554;28;20032;-52
2022/06/17 02:28:38;;;;;;;13.88;10.60;;;;;;;18.44;62.55;102374.97;5025369;28;20043;-55
2022/06/17 02:31:08;;;;;;;12.43;11.05;;;;;;;18.37;62.42;102375.72;5023437;28;20033;-57
2022/06/17 02:33:34;;;;;;;13.60;11.10;;;;;;;18.43;61.96;102365.41;5025443;28;20090;-56
2022/06/17 02:36:07;;;;;;;16.08;10.65;;;;;;;18.37;62.38;102365.28;5027014;28;20037;-57
2022/06/17 02:38:34;;;;;;;18.40;11.32;;;;;;;18.35;62.47;102365.28;5027027;28;20029;-53
2022/06/17 02:41:07;;;;;;;14.77;10.90;;;;;;;18.42;61.88;102363.66;5032460;28;20031;-56
2022/06/17 02:43:40;;;;;;;11.70;10.07;;;;;;;18.41;61.97;102362.78;5031784;28;20039;-56
2022/06/17 02:46:20;;;;;;;11.82;10.52;;;;;;;18.41;61.83;102362.78;5030664;28;20025;-56
2022/06/17 02:48:53;;;;;;;14.32;10.82;;;;;;;18.27;62.40;102363.38;5028307;28;20037;-55
2022/06/17 02:51:20;;;;;;;14.00;10.20;;;;;;;18.20;62.80;102370.16;5027788;28;20071;-54
2022/06/17 02:53:45;;;;;;;16.40;10.65;;;;;;;18.12;63.34;102362.19;5035441;28;20032;-53
2022/06/17 02:56:20;;;;;;;14.27;11.02;;;;;;;18.17;63.23;102372.72;5033025;28;20045;-56
2022/06/17 02:58:54;;;;;;;14.85;10.75;;;;;;;18.14;63.22;102364.81;5034292;28;20036;-51
2022/06/17 03:01:24;;;;;;;11.98;10.18;;;;;;;18.20;62.76;102365.84;5036539;28;20066;-56
2022/06/17 03:03:53;;;;;;;18.48;11.32;;;;;;;18.19;63.18;102363.19;5031209;28;20049;-56
2022/06/17 03:06:34;;;;;;;14.60;10.68;;;;;;;18.18;63.51;102366.66;5035226;28;20039;-52
2022/06/17 03:09:34;;;;;;;16.50;11.50;;;;;;;18.12;63.12;102370.00;5036416;28;20689;-56
2022/06/17 03:12:13;;;;;;;12.77;10.75;;;;;;;18.06;63.34;102358.59;5039667;28;20033;-55
2022/06/17 03:14:50;;;;;;;13.65;10.68;;;;;;;18.12;63.06;102362.19;5030609;28;20033;-56
2022/06/17 03:17:19;;;;;;;14.70;10.73;;;;;;;17.95;63.57;102367.03;5030910;28;20029;-54
2022/06/17 03:19:46;;;;;;;13.55;10.82;;;;;;;17.95;63.77;102367.03;5031458;28;20033;-56
2022/06/17 03:22:13;;;;;;;14.98;11.25;;;;;;;17.90;64.24;102373.88;5034509;28;20586;-55
2022/06/17 03:24:46;;;;;;;14.13;10.55;;;;;;;17.94;63.91;102380.91;5028399;28;20045;-56
2022/06/17 03:27:21;;;;;;;13.90;10.60;;;;;;;17.93;64.31;102384.34;5016053;28;20031;-55
2022/06/17 03:29:49;;;;;;;16.95;10.85;;;;;;;17.76;65.10;102390.03;5033415;28;20031;-56
2022/06/17 03:32:22;;;;;;;13.18;11.00;;;;;;;17.83;64.85;102392.78;5033462;28;20033;-53
2022/06/17 03:34:50;;;;;;;13.73;10.95;;;;;;;17.83;65.19;102397.13;5033911;28;20041;-56
2022/06/17 03:37:31;;;;;;;15.40;11.10;;;;;;;17.87;64.21;102397.22;5034819;28;20030;-55
2022/06/17 03:40:19;;;;;;;11.90;10.70;;;;;;;17.89;63.99;102403.34;5037623;28;20489;-54
2022/06/17 03:43:05;;;;;;;13.25;10.90;;;;;;;17.95;64.53;102402.59;5033736;28;20094;-56
2022/06/17 03:45:58;;;;;;;12.85;11.30;;;;;;;17.89;64.33;102403.34;5034412;28;20086;-54
2022/06/17 03:48:42;;;;;;;14.05;10.85;;;;;;;17.93;64.64;102404.28;5032359;28;20028;-55
2022/06/17 03:51:16;;;;;;;14.50;10.90;;;;;;;17.89;64.55;102408.53;5036135;28;20043;-53
2022/06/17 03:53:42;;;;;;;19.27;11.27;;;;;;;17.87;64.73;102402.44;5032808;28;20375;-56
2022/06/17 03:56:16;;;;;;;14.77;10.82;;;;;;;17.93;64.49;102410.38;5034265;28;20048;-56
2022/06/17 03:58:43;;;;;;;13.25;10.52;;;;;;;17.90;64.86;102406.84;5031142;28;20025;-56
2022/06/17 04:01:18;;;;;;;15.18;10.27;;;;;;;17.97;64.13;102398.31;5031453;28;20159;-56
2022/06/17 04:03:53;;;;;;;12.13;10.65;;;;;;;17.98;63.94;102396.59;5034630;28;20247;-54
2022/06/17 04:06:25;;;;;;;14.43;10.55;;;;;;;17.97;63.95;102400.91;5031775;28;20035;-56
2022/06/17 04:08:58;;;;;;;14.52;10.50;;;;;;;17.94;63.92;102395.63;5033444;28;20033;-56
2022/06/17 04:11:28;;;;;;;14.57;10.40;;;;;;;17.99;63.95;102407.03;5030808;28;20064;-53
2022/06/17 04:13:56;;;;;;;14.18;10.40;;;;;;;18.00;63.39;102407.91;5036492;28;20082;-57
2022/06/17 04:16:24;;;;;;;13.10;9.93;;;;;;;18.01;64.03;102405.34;5033947;28;20040;-55
2022/06/17 04:18:49;;;;;;;14.87;10.80;;;;;;;18.02;63.44;102401.91;5032327;28;20090;-55
2022/06/17 04:21:14;;;;;;;13.63;10.52;;;;;;;18.03;63.68;102397.59;5032170;28;20291;-57
2022/06/17 04:23:41;;;;;;;14.80;10.57;;;;;;;18.08;63.38;102389.03;5033882;28;20025;-54
2022/06/17 04:26:23;;;;;;;13.90;10.43;;;;;;;18.09;63.49;102389.91;5031959;28;20040;-56
2022/06/17 04:28:53;;;;;;;13.02;10.98;;;;;;;18.05;63.50;102381.13;5029989;28;20619;-54
2022/06/17 04:31:20;;;;;;;;;;;;;;;18.26;62.41;102382.41;5035714;28;20544;-57
2022/06/17 04:33:52;;;;;;;15.40;11.40;;;;;;;18.10;63.59;102387.31;5029356;28;19920;-53
2022/06/17 04:36:29;;;;;;;12.80;10.98;;;;;;;18.15;63.07;102385.69;5030787;28;20685;-55
2022/06/17 04:39:14;;;;;;;15.07;11.10;;;;;;;18.13;63.07;102371.75;5037787;28;20061;-54
2022/06/17 04:41:42;;;;;;;16.40;11.20;;;;;;;18.12;63.60;102372.59;5032394;28;20036;-56
2022/06/17 04:44:13;;;;;;;12.52;10.68;;;;;;;18.14;63.43;102376.13;5033091;28;20033;-56
2022/06/17 04:46:38;;;;;;;15.40;11.35;;;;;;;18.13;63.14;102369.16;5027493;28;20029;-57
2022/06/17 04:49:05;;;;;;;13.93;10.32;;;;;;;18.18;63.26;102364.91;5026348;28;20079;-56
2022/06/17 04:51:33;;;;;;;15.00;10.18;;;;;;;18.21;62.66;102369.34;5028663;28;20037;-51
2022/06/17 04:53:59;;;;;;;13.88;10.75;;;;;;;18.18;63.13;102364.03;5030133;28;20515;-57
2022/06/17 04:56:41;;;;;;;14.20;10.60;;;;;;;18.23;62.70;102357.22;5025030;28;20020;-53
2022/06/17 04:59:37;;;;;;;16.27;11.30;;;;;;;18.30;62.54;102356.47;5027331;28;20739;-56
2022/06/17 05:02:10;;;;;;;11.90;10.52;;;;;;;18.26;62.74;102370.31;5004327;28;20086;-57
2022/06/17 05:04:35;;;;;;;15.32;11.10;;;;;;;18.22;63.32;102356.34;5030281;28;20033;-57
2022/06/17 05:07:01;;;;;;;14.27;11.18;;;;;;;18.21;63.67;102362.41;5034090;28;20044;-57
2022/06/17 05:09:47;;;;;;;14.90;11.45;;;;;;;18.30;62.75;102366.91;5036536;28;20040;-57
2022/06/17 05:12:25;;;;;;;15.55;10.93;;;;;;;18.32;62.74;102366.91;5033177;28;20129;-56
2022/06/17 05:14:52;;;;;;;14.38;11.20;;;;;;;18.31;62.93;102368.66;5028841;28;20040;-56
2022/06/17 05:17:18;;;;;;;15.52;11.20;;;;;;;18.36;62.90;102359.22;5031929;28;20025;-57
2022/06/17 05:19:43;;;;;;;13.20;11.00;;;;;;;18.42;63.24;102358.44;5012827;28;20083;-57
2022/06/17 05:22:34;;;;;;;14.40;10.88;;;;;;;18.48;62.76;102349.03;5029201;28;20505;-57
2022/06/17 05:25:02;;;;;;;15.05;10.77;;;;;;;18.50;62.58;102367.28;5032038;28;20056;-57
2022/06/17 05:27:28;;;;;;;12.23;10.55;;;;;;;18.51;62.70;102361.25;5032063;28;20116;-56
2022/06/17 05:29:53;;;;;;;12.65;10.88;;;;;;;18.51;62.91;102356.03;5028372;28;20087;-55
2022/06/17 05:32:20;;;;;;;13.82;11.23;;;;;;;18.51;62.74;102347.34;5031829;28;20037;-55
2022/06/17 05:34:46;;;;;;;14.30;10.68;;;;;;;18.53;62.26;102364.75;5028935;28;20924;-56
2022/06/17 05:37:13;;;;;;;20.60;11.70;;;;;;;18.51;62.96;102366.47;5026711;28;20036;-56
2022/06/17 05:39:38;;;;;;;16.08;11.15;;;;;;;18.58;62.48;102376.13;5034477;28;20033;-56
2022/06/17 05:42:05;;;;;;;15.55;11.40;;;;;;;18.57;62.82;102374.41;5027179;28;20504;-52
2022/06/17 05:44:31;;;;;;;13.90;11.00;;;;;;;18.60;63.26;102369.22;5034891;28;20045;-56
2022/06/17 05:46:57;;;;;;;14.15;11.00;;;;;;;18.60;62.84;102363.13;5010078;28;20033;-55
2022/06/17 05:49:22;;;;;;;13.77;11.10;;;;;;;18.65;62.96;102359.78;5030774;28;20083;-57
2022/06/17 05:51:48;;;;;;;15.60;11.45;;;;;;;18.72;63.26;102359.06;5028560;28;20064;-57
2022/06/17 05:54:13;;;;;;;16.00;10.80;;;;;;;18.74;62.96;102352.13;5031501;28;20033;-57
2022/06/17 05:56:38;;;;;;;12.70;10.65;;;;;;;18.78;62.93;102347.88;5029162;28;20056;-50
2022/06/17 05:59:04;;;;;;;14.10;11.07;;;;;;;18.82;63.18;102349.69;5029178;28;20045;-57
2022/06/17 06:01:29;;;;;;;16.70;11.20;;;;;;;18.83;62.34;102348.84;5030822;28;20033;-56
2022/06/17 06:03:55;;;;;;;16.55;11.48;;;;;;;18.81;61.79;102344.44;5031688;28;20077;-58
2022/06/17 06:06:20;;;;;;;18.85;11.50;;;;;;;18.85;62.58;102333.22;5030656;28;20025;-56
2022/06/17 06:08:46;;;;;;;13.43;11.35;;;;;;;18.87;62.83;102327.19;5029930;28;20076;-55
2022/06/17 06:11:11;;;;;;;15.93;11.93;;;;;;;18.91;62.88;102317.69;5038979;28;20406;-58
2022/06/17 06:13:37;;;;;;;18.45;10.82;;;;;;;18.89;62.67;102324.63;5037682;28;20504;-59
2022/06/17 06:16:03;;;;;;;15.75;11.13;;;;;;;18.94;62.05;102323.84;5032382;28;20037;-58
2022/06/17 06:18:36;;;;;;;16.15;11.05;;;;;;;18.95;61.97;102333.41;5038543;28;20486;-62
2022/06/17 06:21:04;;;;;;;16.13;10.73;;;;;;;18.94;61.99;102334.25;5035500;28;20044;-57
2022/06/17 06:23:39;;;;;;;14.15;10.70;;;;;;;18.95;61.86;102332.53;5036651;28;20029;-58
2022/06/17 06:26:08;;;;;;;15.00;10.60;;;;;;;18.97;62.36;102339.50;5017967;28;20060;-56
2022/06/17 06:28:34;;;;;;;19.65;11.25;;;;;;;19.03;61.80;102333.53;5034326;28;20131;-57
2022/06/17 06:31:06;;;;;;;13.95;11.30;;;;;;;19.09;62.25;102337.97;5036577;28;20119;-56
2022/06/17 06:33:33;;;;;;;13.85;10.13;;;;;;;19.09;62.48;102332.75;5037882;28;20493;-58
2022/06/17 06:35:59;;;;;;;14.07;11.35;;;;;;;19.13;62.11;102342.41;5029880;28;20033;-58
2022/06/17 06:38:25;;;;;;;12.18;10.50;;;;;;;19.15;62.76;102340.69;5037648;28;20738;-55
2022/06/17 06:40:50;;;;;;;18.77;11.13;;;;;;;19.18;62.25;102349.44;5034147;28;20039;-55
2022/06/17 06:43:19;;;;;;;12.98;10.93;;;;;;;19.19;62.45;102345.09;5032856;28;20525;-58
2022/06/17 06:45:48;;;;;;;15.60;11.13;;;;;;;19.25;62.60;102342.59;5031864;28;20094;-52
2022/06/17 06:48:14;;;;;;;;;;;;;;;19.39;61.65;102341.06;5034706;28;20075;-55
2022/06/17 06:50:40;;;;;;;16.42;11.18;;;;;;;19.34;62.79;102334.88;5035715;28;19920;-57
2022/06/17 06:53:06;;;;;;;13.73;10.57;;;;;;;19.42;62.42;102335.03;5036004;28;20044;-58
2022/06/17 06:55:34;;;;;;;13.40;10.23;;;;;;;19.48;62.70;102327.28;5034621;28;20111;-57
2022/06/17 06:58:11;;;;;;;15.60;10.40;;;;;;;19.59;62.05;102336.16;5039932;28;20509;-57
2022/06/17 07:00:48;;;;;;;15.27;10.93;;;;;;;19.65;62.01;102346.69;5035149;28;20096;-55
2022/06/17 07:03:15;;;;;;;15.43;10.68;;;;;;;19.71;61.36;102340.69;5035193;28;20512;-54
2022/06/17 07:05:44;;;;;;;14.70;11.05;;;;;;;19.79;61.56;102341.69;5016092;28;20021;-58
2022/06/17 07:08:12;;;;;;;13.80;10.23;;;;;;;19.97;60.71;102348.88;5032907;28;20528;-55
2022/06/17 07:10:38;;;;;;;11.93;9.75;;;;;;;20.11;60.77;102356.88;5033346;28;20044;-58
2022/06/17 07:13:05;;;;;;;16.98;10.10;;;;;;;20.15;60.39;102354.34;5032877;28;20379;-58
2022/06/17 07:15:31;;;;;;;12.73;10.02;;;;;;;20.35;60.64;102352.81;5037607;28;20033;-54
2022/06/17 07:18:00;;;;;;;13.00;8.10;;;;;;;20.39;59.99;102348.53;5015556;28;20548;-56
2022/06/17 07:20:28;;;;;;;12.27;9.07;;;;;;;20.48;59.84;102338.19;5033432;28;20044;-56
2022/06/17 07:22:53;;;;;;;13.02;8.40;;;;;;;20.65;59.41;102330.53;5032870;28;20494;-56
2022/06/17 07:25:20;;;;;;;14.25;8.57;;;;;;;20.70;59.07;102331.44;5038546;28;20087;-57
2022/06/17 07:27:45;;;;;;;10.77;7.15;;;;;;;20.86;59.32;102333.31;5031837;28;20041;-54
2022/06/17 07:30:17;;;;;;;9.65;7.18;;;;;;;20.94;59.18;102329.91;5032639;28;20051;-67
2022/06/17 07:32:43;;;;;;;10.73;6.68;;;;;;;21.09;58.36;102327.41;5035297;28;20034;-58
2022/06/17 07:35:09;;;;;;;11.57;7.13;;;;;;;21.14;56.93;102336.19;5033518;28;20040;-55
2022/06/17 07:40:18;;;;;;;7.82;6.45;;;;;;;21.42;57.48;102334.69;5039154;28;20041;-58
2022/06/17 07:42:44;;;;;;;9.82;5.70;;;;;;;21.54;56.24;102342.59;5039684;28;20490;-58
2022/06/17 07:45:16;;;;;;;11.35;5.43;;;;;;;21.61;56.12;102352.25;5033592;28;20041;-58
2022/06/17 07:47:42;;;;;;;8.70;5.50;;;;;;;21.71;56.66;102362.75;5035250;28;20039;-58
2022/06/17 07:50:12;;;;;;;11.93;5.93;;;;;;;21.79;55.09;102361.06;5030400;28;20037;-57
2022/06/17 07:52:38;;;;;;;10.85;5.75;;;;;;;21.77;55.35;102360.16;5037148;28;20497;-55
2022/06/17 07:55:04;;;;;;;11.20;5.35;;;;;;;21.90;55.10;102349.78;5011710;28;20068;-58
2022/06/17 07:57:30;;;;;;;10.13;5.03;;;;;;;22.02;54.80;102346.31;5035668;28;20037;-52
2022/06/17 07:59:55;;;;;;;10.07;5.13;;;;;;;22.12;55.56;102344.66;5034074;28;20029;-60
2022/06/17 08:02:21;;;;;;;7.68;4.97;;;;;;;22.20;55.69;102335.97;5034731;28;20025;-58
2022/06/17 08:04:46;;;;;;;6.53;4.38;;;;;;;22.29;55.60;102339.47;5030126;28;20172;-61
2022/06/17 08:07:11;;;;;;;17.77;4.80;;;;;;;22.40;54.41;102343.88;5016540;28;20036;-60
2022/06/17 08:09:37;;;;;;;7.03;4.10;;;;;;;22.51;55.04;102350.88;5032292;28;20060;-61
2022/06/17 08:12:07;;;;;;;7.93;3.47;;;;;;;22.63;52.52;102361.38;5031733;28;20048;-57
2022/06/17 08:14:32;;;;;;;8.05;3.42;;;;;;;22.67;52.37;102363.16;5030071;28;20045;-60
2022/06/17 08:16:57;;;;;;;6.75;3.67;;;;;;;22.68;52.46;102355.28;5030269;28;20072;-59
2022/06/17 08:19:23;;;;;;;4.75;3.20;;;;;;;22.76;51.52;102363.19;5033266;28;20449;-60
2022/06/17 08:21:48;;;;;;;7.28;3.15;;;;;;;22.85;50.34;102363.16;5033632;28;20033;-60
2022/06/17 08:24:13;;;;;;;7.78;3.13;;;;;;;22.96;50.00;102364.09;5033658;28;20029;-60
2022/06/17 08:26:39;;;;;;;6.85;3.22;;;;;;;23.06;51.24;102356.25;5029997;28;20041;-58
2022/06/17 08:29:04;;;;;;;7.63;3.28;;;;;;;23.11;50.55;102355.34;5028438;28;20044;-61
2022/06/17 08:31:29;;;;;;;6.88;2.70;;;;;;;23.25;49.81;102357.97;5033200;28;20084;-61
2022/06/17 08:33:55;;;;;;;6.65;2.75;;;;;;;23.24;48.81;102351.84;5009465;28;20055;-53
2022/06/17 08:36:24;;;;;;;7.32;2.47;;;;;;;23.38;49.16;102343.97;5003228;28;20030;-61
2022/06/17 08:38:53;;;;;;;9.25;2.80;;;;;;;23.51;48.64;102329.94;5027877;28;20045;-61
2022/06/17 08:41:27;;;;;;;7.13;2.72;;;;;;;23.62;49.04;102326.44;5032246;28;20033;-60
2022/06/17 08:44:10;;;;;;;4.32;2.63;;;;;;;23.65;49.17;102326.41;5033325;28;20060;-61
2022/06/17 08:46:57;;;;;;;7.57;2.90;;;;;;;23.60;47.07;102328.16;5031127;28;20478;-59
2022/06/17 08:49:22;;;;;;;7.07;2.80;;;;;;;23.70;47.13;102325.53;5040032;28;20029;-57
2022/06/17 08:52:06;;;;;;;7.90;2.60;;;;;;;23.70;46.96;102333.41;5032862;28;20094;-60
2022/06/17 08:55:02;;;;;;;4.85;2.80;;;;;;;23.76;46.40;102337.75;5017536;28;20021;-61
2022/06/17 08:57:49;;;;;;;6.50;2.53;;;;;;;23.81;48.37;102342.13;5033131;28;20501;-61
2022/06/17 09:00:25;;;;;;;6.40;2.60;;;;;;;23.87;46.62;102351.75;5030150;28;20025;-61
2022/06/17 09:03:21;;;;;;;5.72;2.40;;;;;;;23.93;47.79;102343.84;5016153;28;20413;-61
2022/06/17 09:06:23;;;;;;;4.20;2.50;;;;;;;24.04;48.17;102349.06;5035835;28;20152;-61
2022/06/17 09:09:01;;;;;;;7.13;2.60;;;;;;;24.17;47.62;102353.38;5015508;28;20037;-60
2022/06/17 09:11:41;;;;;;;9.02;3.00;;;;;;;24.23;46.26;102349.84;5033503;28;20175;-61
2022/06/17 09:14:36;;;;;;;4.50;2.30;;;;;;;24.32;47.09;102342.75;5031416;28;20454;-59
2022/06/17 09:17:12;;;;;;;8.95;2.85;;;;;;;24.40;45.86;102329.63;5012720;28;20428;-57
2022/06/17 09:19:43;;;;;;;4.43;2.25;;;;;;;24.50;44.97;102331.28;5021324;28;20033;-57
2022/06/17 09:22:08;;;;;;;6.40;3.05;;;;;;;24.62;43.24;102330.34;5034881;28;20120;-57
2022/06/17 09:24:39;;;;;;;8.65;2.75;;;;;;;24.63;44.01;102334.72;5014142;28;20124;-59
2022/06/17 09:27:09;;;;;;;4.70;2.42;;;;;;;24.70;44.63;102335.56;5030594;28;20059;-58
2022/06/17 09:29:45;;;;;;;6.35;2.45;;;;;;;24.78;45.22;102331.09;5034224;28;20120;-59
2022/06/17 09:32:20;;;;;;;5.65;2.72;;;;;;;24.92;44.05;102338.88;5033308;28;20032;-62
2022/06/17 09:35:14;;;;;;;5.63;2.70;;;;;;;24.91;44.97;102327.50;5033069;28;20835;-58
2022/06/17 09:38:06;;;;;;;5.63;3.00;;;;;;;25.05;43.91;102333.53;5029250;28;20048;-60
2022/06/17 09:40:35;;;;;;;5.75;2.58;;;;;;;25.14;42.71;102330.84;5018665;28;20041;-60
2022/06/17 09:43:12;;;;;;;6.20;2.53;;;;;;;25.23;43.19;102336.88;5028482;28;20445;-56
2022/06/17 09:45:51;;;;;;;9.45;2.50;;;;;;;25.28;44.17;102335.97;5017844;28;20033;-61
2022/06/17 09:48:19;;;;;;;4.28;2.35;;;;;;;25.33;43.13;102344.69;5032146;28;20040;-57
2022/06/17 09:51:08;;;;;;;8.63;2.90;;;;;;;25.40;42.51;102329.69;5029784;28;20533;-60
2022/06/17 09:53:41;;;;;;;9.35;2.85;;;;;;;25.50;42.05;102339.25;5030364;28;20048;-58
2022/06/17 09:56:15;;;;;;;4.82;2.65;;;;;;;25.58;41.45;102336.53;5033196;28;20451;-59
2022/06/17 09:58:52;;;;;;;7.30;2.50;;;;;;;25.64;42.45;102334.69;5032995;28;20028;-56
2022/06/17 10:01:19;;;;;;;7.55;3.20;;;;;;;25.74;42.80;102324.97;5030846;28;20742;-57
2022/06/17 10:03:44;;;;;;;6.95;2.78;;;;;;;25.80;40.62;102329.28;5013019;28;20040;-60
2022/06/17 10:06:35;;;;;;;6.10;2.92;;;;;;;25.88;40.97;102315.13;5029034;28;20095;-56
2022/06/17 10:09:36;;;;;;;6.10;2.50;;;;;;;25.97;40.84;102306.25;5033002;28;20458;-57
2022/06/17 10:12:21;;;;;;;4.22;2.33;;;;;;;26.11;40.66;102301.66;5008760;28;20072;-60
2022/06/17 10:15:08;;;;;;;6.47;2.67;;;;;;;26.18;41.38;102307.69;5031826;28;20026;-55
2022/06/17 10:20:56;;;;;;;7.05;2.40;;;;;;;26.28;39.18;102301.41;5029653;28;20057;-59
2022/06/17 10:23:42;;;;;;;6.13;2.60;;;;;;;26.40;39.31;102290.72;5026116;28;20082;-57
2022/06/17 10:26:32;;;;;;;4.88;2.60;;;;;;;26.52;41.06;102296.69;5026649;28;20045;-58
2022/06/17 10:29:33;;;;;;;6.63;2.90;;;;;;;26.60;40.18;102285.13;5028246;28;20114;-59
2022/06/17 10:31:59;;;;;;;6.32;2.42;;;;;;;26.61;41.06;102281.56;5028558;28;20424;-60
2022/06/17 10:34:27;;;;;;;9.63;2.75;;;;;;;26.65;38.50;102274.50;5027018;28;20029;-58
2022/06/17 10:36:56;;;;;;;5.85;2.70;;;;;;;26.69;38.79;102284.94;5029228;28;20044;-59
2022/06/17 10:39:25;;;;;;;5.88;2.30;;;;;;;26.78;38.88;102289.22;5029789;28;20072;-58
2022/06/17 10:41:51;;;;;;;3.42;2.10;;;;;;;26.92;39.67;102286.34;5027206;28;20485;-61
2022/06/17 10:44:23;;;;;;;6.15;2.17;;;;;;;26.97;39.43;102282.72;5029716;28;20038;-63
2022/06/17 10:47:11;;;;;;;7.32;2.42;;;;;;;27.06;40.07;102278.19;5029397;28;20115;-64
2022/06/17 10:49:50;;;;;;;4.03;2.20;;;;;;;27.13;40.04;102280.72;5021878;28;20105;-57
2022/06/17 10:52:21;;;;;;;4.90;2.05;;;;;;;27.18;39.78;102272.69;5029250;28;20651;-57
2022/06/17 10:54:49;;;;;;;4.50;2.20;;;;;;;27.27;39.10;102277.81;5038475;28;20025;-55
2022/06/17 10:57:27;;;;;;;4.80;2.08;;;;;;;27.31;39.41;102268.06;5033975;28;20144;-57
2022/06/17 10:59:53;;;;;;;5.47;1.97;;;;;;;27.32;38.58;102275.09;5037247;28;20030;-55
2022/06/17 11:02:21;;;;;;;4.47;1.80;;;;;;;27.41;37.92;102269.59;5035893;28;20043;-57
2022/06/17 11:04:58;;;;;;;3.63;1.83;;;;;;;27.39;39.02;102263.50;5036399;28;20132;-56
2022/06/17 11:07:27;;;;;;;5.60;1.88;;;;;;;27.41;37.88;102259.03;5037223;28;20021;-57
2022/06/17 11:09:56;;;;;;;3.80;1.58;;;;;;;27.37;37.92;102258.25;5032889;28;20740;-58
2022/06/17 11:12:32;;;;;;;5.05;1.60;;;;;;;27.35;37.58;102245.94;5040607;28;20099;-58
2022/06/17 11:15:03;;;;;;;6.18;1.88;;;;;;;27.37;36.01;102249.47;5035078;28;20029;-56
2022/06/17 11:17:44;;;;;;;7.63;1.60;;;;;;;27.45;36.94;102255.44;5033069;28;20188;-57
2022/06/17 11:20:16;;;;;;;5.45;1.58;;;;;;;27.35;37.28;102238.03;5034253;28;20064;-57
2022/06/17 11:22:51;;;;;;;6.63;1.52;;;;;;;27.44;36.83;102241.38;5037068;28;20029;-54
2022/06/17 11:25:25;;;;;;;3.90;1.30;;;;;;;27.57;36.37;102231.41;5032713;28;20021;-58
2022/06/17 11:28:20;;;;;;;4.15;1.67;;;;;;;27.53;37.88;102235.00;5039302;28;20052;-58
2022/06/17 11:30:57;;;;;;;3.97;1.50;;;;;;;27.55;37.94;102227.06;5037060;28;20109;-57
2022/06/17 11:33:36;;;;;;;2.23;1.73;;;;;;;27.62;37.82;102229.53;5033316;28;20021;-57
2022/06/17 11:36:01;;;;;;;;;;;;;;;27.68;37.78;102221.50;5033669;28;20029;-58
2022/06/17 11:38:29;;;;;;;6.67;1.90;;;;;;;27.71;35.79;102223.22;5037382;28;19928;-57
2022/06/17 11:41:00;;;;;;;6.22;1.55;;;;;;;27.72;35.56;102220.53;5029396;28;20334;-58
2022/06/17 11:43:39;;;;;;;3.78;1.65;;;;;;;27.71;35.50;102215.28;5032028;28;20489;-56
2022/06/17 11:46:25;;;;;;;3.08;1.33;;;;;;;27.75;35.58;102220.47;5036427;28;20116;-58